sensor_id;sensor_type;location;lat;lon;timestamp;pressure;altitude;pressure_sealevel;temperature;humidity
23118;BME280;11728;50.624;6.014;2023-04-06T00:00:25;98471.91;;;2.52;61.36
23118;BME280;11728;50.624;6.014;2023-04-06T00:05:26;98470.16;;;2.51;61.56
23118;BME280;11728;50.624;6.014;2023-04-06T00:10:27;98468.44;;;2.50;61.93
23118;BME280;11728;50.624;6.014;2023-04-06T00:15:28;98472.75;;;2.50;61.41
23118;BME280;11728;50.624;6.014;2023-04-06T00:20:28;98463.13;;;2.43;61.78
23118;BME280;11728;50.624;6.014;2023-04-06T00:25:29;98463.84;;;2.33;61.73
23118;BME280;11728;50.624;6.014;2023-04-06T00:30:29;98458.56;;;2.24;62.33
23118;BME280;11728;50.624;6.014;2023-04-06T00:35:30;98457.56;;;2.15;63.26
23118;BME280;11728;50.624;6.014;2023-04-06T00:40:30;98450.53;;;2.08;63.37
23118;BME280;11728;50.624;6.014;2023-04-06T00:45:33;98453.06;;;2.02;64.13
23118;BME280;11728;50.624;6.014;2023-04-06T00:50:34;98444.38;;;2.01;64.48
23118;BME280;11728;50.624;6.014;2023-04-06T00:55:35;98439.06;;;1.94;64.56
23118;BME280;11728;50.624;6.014;2023-04-06T01:00:36;98433.84;;;1.92;64.78
23118;BME280;11728;50.624;6.014;2023-04-06T01:05:36;98426.03;;;1.92;64.56
23118;BME280;11728;50.624;6.014;2023-04-06T01:10:40;98414.72;;;1.90;65.32
23118;BME280;11728;50.624;6.014;2023-04-06T01:15:40;98418.16;;;1.86;65.56
23118;BME280;11728;50.624;6.014;2023-04-06T01:20:41;98419.00;;;1.87;65.23
23118;BME280;11728;50.624;6.014;2023-04-06T01:25:41;98411.19;;;1.84;65.11
23118;BME280;11728;50.624;6.014;2023-04-06T01:30:42;98411.19;;;1.85;65.71
23118;BME280;11728;50.624;6.014;2023-04-06T01:35:42;98407.81;;;1.91;65.25
23118;BME280;11728;50.624;6.014;2023-04-06T01:40:43;98409.50;;;1.87;65.08
23118;BME280;11728;50.624;6.014;2023-04-06T01:45:43;98405.94;;;1.82;65.96
23118;BME280;11728;50.624;6.014;2023-04-06T01:50:43;98398.13;;;1.82;66.08
23118;BME280;11728;50.624;6.014;2023-04-06T01:55:44;98384.25;;;1.83;65.60
23118;BME280;11728;50.624;6.014;2023-04-06T02:00:45;98392.97;;;1.85;65.95
23118;BME280;11728;50.624;6.014;2023-04-06T02:05:45;98391.28;;;1.90;66.32
23118;BME280;11728;50.624;6.014;2023-04-06T02:10:46;98390.44;;;1.91;66.20
23118;BME280;11728;50.624;6.014;2023-04-06T02:15:47;98381.72;;;1.89;65.63
23118;BME280;11728;50.624;6.014;2023-04-06T02:20:47;98385.13;;;1.82;66.13
23118;BME280;11728;50.624;6.014;2023-04-06T02:25:48;98385.94;;;1.78;67.14
23118;BME280;11728;50.624;6.014;2023-04-06T02:30:48;98371.06;;;1.68;67.73
23118;BME280;11728;50.624;6.014;2023-04-06T02:35:48;98371.84;;;1.63;67.68
23118;BME280;11728;50.624;6.014;2023-04-06T02:40:49;98364.03;;;1.63;68.37
23118;BME280;11728;50.624;6.014;2023-04-06T02:45:49;98364.00;;;1.58;68.46
23118;BME280;11728;50.624;6.014;2023-04-06T02:50:50;98363.13;;;1.58;68.21
23118;BME280;11728;50.624;6.014;2023-04-06T02:55:50;98363.19;;;1.62;68.39
23118;BME280;11728;50.624;6.014;2023-04-06T03:00:50;98352.84;;;1.70;68.16
23118;BME280;11728;50.624;6.014;2023-04-06T03:05:51;98349.44;;;1.72;67.31
23118;BME280;11728;50.624;6.014;2023-04-06T03:10:51;98349.44;;;1.74;67.99
23118;BME280;11728;50.624;6.014;2023-04-06T03:15:52;98348.66;;;1.81;68.24
23118;BME280;11728;50.624;6.014;2023-04-06T03:20:52;98345.28;;;1.86;67.42
23118;BME280;11728;50.624;6.014;2023-04-06T03:25:55;98348.84;;;1.97;67.31
23118;BME280;11728;50.624;6.014;2023-04-06T03:30:56;98344.59;;;2.04;67.95
23118;BME280;11728;50.624;6.014;2023-04-06T03:35:56;98332.56;;;2.15;67.61
23118;BME280;11728;50.624;6.014;2023-04-06T03:40:56;98334.44;;;2.28;67.58
23118;BME280;11728;50.624;6.014;2023-04-06T03:45:57;98327.59;;;2.40;67.78
23118;BME280;11728;50.624;6.014;2023-04-06T03:50:58;98336.44;;;2.58;67.25
23118;BME280;11728;50.624;6.014;2023-04-06T03:55:58;98318.34;;;2.70;66.48
23118;BME280;11728;50.624;6.014;2023-04-06T04:00:59;98330.63;;;2.88;65.63
23118;BME280;11728;50.624;6.014;2023-04-06T04:05:59;98331.59;;;3.02;65.24
23118;BME280;11728;50.624;6.014;2023-04-06T04:11:00;98337.72;;;3.06;65.32
23118;BME280;11728;50.624;6.014;2023-04-06T04:16:00;98334.31;;;3.16;65.54
23118;BME280;11728;50.624;6.014;2023-04-06T04:21:00;98330.00;;;3.21;65.01
23118;BME280;11728;50.624;6.014;2023-04-06T04:26:01;98331.81;;;3.31;65.02
23118;BME280;11728;50.624;6.014;2023-04-06T04:31:02;98327.53;;;3.42;65.13
23118;BME280;11728;50.624;6.014;2023-04-06T04:36:03;98326.66;;;3.48;64.91
23118;BME280;11728;50.624;6.014;2023-04-06T04:41:03;98331.09;;;3.61;64.48
23118;BME280;11728;50.624;6.014;2023-04-06T04:46:04;98325.94;;;3.77;63.48
23118;BME280;11728;50.624;6.014;2023-04-06T04:51:05;98324.22;;;3.82;63.79
23118;BME280;11728;50.624;6.014;2023-04-06T04:56:06;98324.28;;;3.94;62.80
23118;BME280;11728;50.624;6.014;2023-04-06T05:01:06;98329.53;;;4.06;62.42
23118;BME280;11728;50.624;6.014;2023-04-06T05:06:06;98323.44;;;4.10;62.26
23118;BME280;11728;50.624;6.014;2023-04-06T05:11:08;98322.63;;;4.23;61.49
23118;BME280;11728;50.624;6.014;2023-04-06T05:16:09;98321.75;;;4.33;60.75
23118;BME280;11728;50.624;6.014;2023-04-06T05:21:10;98322.66;;;4.42;60.40
23118;BME280;11728;50.624;6.014;2023-04-06T05:26:11;98323.53;;;4.52;60.10
23118;BME280;11728;50.624;6.014;2023-04-06T05:31:11;98320.97;;;4.75;59.33
23118;BME280;11728;50.624;6.014;2023-04-06T05:36:12;98321.81;;;4.86;59.45
23118;BME280;11728;50.624;6.014;2023-04-06T05:41:13;98318.31;;;5.04;58.99
23118;BME280;11728;50.624;6.014;2023-04-06T05:46:13;98302.56;;;5.25;58.53
23118;BME280;11728;50.624;6.014;2023-04-06T05:51:13;98307.75;;;5.48;57.94
23118;BME280;11728;50.624;6.014;2023-04-06T05:56:14;98316.41;;;5.74;57.38
23118;BME280;11728;50.624;6.014;2023-04-06T06:01:15;98313.69;;;6.03;56.88
23118;BME280;11728;50.624;6.014;2023-04-06T06:06:15;98310.84;;;6.38;56.11
23118;BME280;11728;50.624;6.014;2023-04-06T06:11:16;98306.25;;;6.73;55.72
23118;BME280;11728;50.624;6.014;2023-04-06T06:16:17;98302.44;;;7.08;55.06
23118;BME280;11728;50.624;6.014;2023-04-06T06:21:18;98305.53;;;7.51;54.36
23118;BME280;11728;50.624;6.014;2023-04-06T06:26:18;98295.38;;;7.96;54.26
23118;BME280;11728;50.624;6.014;2023-04-06T06:31:19;98301.84;;;8.36;53.65
23118;BME280;11728;50.624;6.014;2023-04-06T06:36:23;98293.38;;;8.74;53.26
23118;BME280;11728;50.624;6.014;2023-04-06T06:41:24;98292.84;;;9.06;52.89
23118;BME280;11728;50.624;6.014;2023-04-06T06:46:26;98295.59;;;9.00;52.52
23118;BME280;11728;50.624;6.014;2023-04-06T06:51:29;98286.03;;;8.96;52.46
23118;BME280;11728;50.624;6.014;2023-04-06T06:56:30;98294.56;;;9.10;52.36
23118;BME280;11728;50.624;6.014;2023-04-06T07:01:32;98291.56;;;9.29;52.17
23118;BME280;11728;50.624;6.014;2023-04-06T07:06:34;98290.09;;;9.61;51.95
23118;BME280;11728;50.624;6.014;2023-04-06T07:11:35;98285.13;;;9.90;51.66
23118;BME280;11728;50.624;6.014;2023-04-06T07:16:35;98284.38;;;10.26;51.00
23118;BME280;11728;50.624;6.014;2023-04-06T07:21:36;98284.63;;;10.53;49.96
23118;BME280;11728;50.624;6.014;2023-04-06T07:26:36;98278.66;;;10.81;49.54
23118;BME280;11728;50.624;6.014;2023-04-06T07:31:37;98280.69;;;10.71;48.83
23118;BME280;11728;50.624;6.014;2023-04-06T07:36:37;98279.75;;;10.73;48.99
23118;BME280;11728;50.624;6.014;2023-04-06T07:41:38;98273.38;;;10.81;48.88
23118;BME280;11728;50.624;6.014;2023-04-06T07:46:38;98284.63;;;10.89;48.49
23118;BME280;11728;50.624;6.014;2023-04-06T07:51:39;98280.56;;;10.76;48.10
23118;BME280;11728;50.624;6.014;2023-04-06T07:56:40;98273.78;;;11.01;47.54
23118;BME280;11728;50.624;6.014;2023-04-06T08:01:40;98278.03;;;11.40;46.79
23118;BME280;11728;50.624;6.014;2023-04-06T08:06:41;98280.91;;;11.66;46.57
23118;BME280;11728;50.624;6.014;2023-04-06T08:11:41;98278.47;;;12.19;45.62
23118;BME280;11728;50.624;6.014;2023-04-06T08:16:41;98274.78;;;12.53;45.15
23118;BME280;11728;50.624;6.014;2023-04-06T08:21:43;98278.66;;;12.42;44.77
23118;BME280;11728;50.624;6.014;2023-04-06T08:26:43;98278.34;;;12.52;43.87
23118;BME280;11728;50.624;6.014;2023-04-06T08:31:43;98275.22;;;13.22;42.93
23118;BME280;11728;50.624;6.014;2023-04-06T08:36:44;98282.28;;;13.72;42.24
23118;BME280;11728;50.624;6.014;2023-04-06T08:41:46;98279.78;;;13.91;42.31
23118;BME280;11728;50.624;6.014;2023-04-06T08:46:46;98290.63;;;13.85;42.48
23118;BME280;11728;50.624;6.014;2023-04-06T08:51:47;98288.47;;;13.96;42.25
23118;BME280;11728;50.624;6.014;2023-04-06T08:56:48;98281.47;;;13.94;41.60
23118;BME280;11728;50.624;6.014;2023-04-06T09:01:49;98282.00;;;13.55;41.98
23118;BME280;11728;50.624;6.014;2023-04-06T09:06:52;98287.75;;;13.43;42.23
23118;BME280;11728;50.624;6.014;2023-04-06T09:11:53;98291.63;;;13.57;41.99
23118;BME280;11728;50.624;6.014;2023-04-06T09:16:53;98294.34;;;13.82;41.95
23118;BME280;11728;50.624;6.014;2023-04-06T09:22:04;98297.47;;;13.68;41.83
23118;BME280;11728;50.624;6.014;2023-04-06T09:27:07;98294.97;;;13.64;41.95
23118;BME280;11728;50.624;6.014;2023-04-06T09:32:09;98298.31;;;13.69;42.56
23118;BME280;11728;50.624;6.014;2023-04-06T09:37:18;98300.44;;;13.83;42.17
23118;BME280;11728;50.624;6.014;2023-04-06T09:42:25;98299.38;;;14.36;41.84
23118;BME280;11728;50.624;6.014;2023-04-06T09:47:26;98296.97;;;14.53;41.95
23118;BME280;11728;50.624;6.014;2023-04-06T09:52:33;98288.72;;;14.82;41.88
23118;BME280;11728;50.624;6.014;2023-04-06T09:57:45;98297.66;;;14.35;42.46
23118;BME280;11728;50.624;6.014;2023-04-06T10:03:08;98293.88;;;14.18;42.83
23118;BME280;11728;50.624;6.014;2023-04-06T10:08:10;98295.47;;;13.75;43.17
23118;BME280;11728;50.624;6.014;2023-04-06T10:13:11;98290.84;;;13.29;43.78
23118;BME280;11728;50.624;6.014;2023-04-06T10:18:12;98294.28;;;13.33;43.95
23118;BME280;11728;50.624;6.014;2023-04-06T10:28:20;98282.84;;;13.81;43.40
23118;BME280;11728;50.624;6.014;2023-04-06T10:33:21;98292.16;;;13.92;43.30
23118;BME280;11728;50.624;6.014;2023-04-06T10:38:33;98293.50;;;14.04;43.23
23118;BME280;11728;50.624;6.014;2023-04-06T10:43:35;98295.84;;;14.13;43.39
23118;BME280;11728;50.624;6.014;2023-04-06T10:48:45;98286.16;;;13.87;43.58
23118;BME280;11728;50.624;6.014;2023-04-06T10:53:47;98293.22;;;13.63;43.92
23118;BME280;11728;50.624;6.014;2023-04-06T10:58:51;98287.44;;;13.52;44.08
23118;BME280;11728;50.624;6.014;2023-04-06T11:03:54;98278.50;;;13.03;44.42
23118;BME280;11728;50.624;6.014;2023-04-06T11:08:56;98285.66;;;12.72;45.04
23118;BME280;11728;50.624;6.014;2023-04-06T11:13:58;98279.34;;;12.76;45.38
23118;BME280;11728;50.624;6.014;2023-04-06T11:19:04;98286.91;;;12.60;46.37
23118;BME280;11728;50.624;6.014;2023-04-06T11:24:07;98294.47;;;12.15;47.76
23118;BME280;11728;50.624;6.014;2023-04-06T11:29:08;98286.00;;;12.04;48.75
23118;BME280;11728;50.624;6.014;2023-04-06T11:34:11;98292.56;;;11.89;49.61
23118;BME280;11728;50.624;6.014;2023-04-06T11:39:13;98289.38;;;12.09;50.29
23118;BME280;11728;50.624;6.014;2023-04-06T11:44:13;98278.59;;;12.15;50.11
23118;BME280;11728;50.624;6.014;2023-04-06T11:49:15;98279.81;;;12.03;49.62
23118;BME280;11728;50.624;6.014;2023-04-06T11:54:16;98264.66;;;11.79;50.50
23118;BME280;11728;50.624;6.014;2023-04-06T11:59:17;98271.72;;;11.79;51.34
23118;BME280;11728;50.624;6.014;2023-04-06T12:04:17;98274.75;;;11.96;51.90
23118;BME280;11728;50.624;6.014;2023-04-06T12:09:18;98267.06;;;11.87;52.88
23118;BME280;11728;50.624;6.014;2023-04-06T12:14:18;98272.25;;;11.59;54.41
23118;BME280;11728;50.624;6.014;2023-04-06T12:19:19;98273.91;;;11.30;56.50
23118;BME280;11728;50.624;6.014;2023-04-06T12:24:20;98277.69;;;11.20;57.90
23118;BME280;11728;50.624;6.014;2023-04-06T12:29:20;98264.16;;;11.32;57.43
23118;BME280;11728;50.624;6.014;2023-04-06T12:34:21;98295.72;;;11.05;59.37
23118;BME280;11728;50.624;6.014;2023-04-06T12:39:21;98265.81;;;10.67;62.03
23118;BME280;11728;50.624;6.014;2023-04-06T12:44:22;98271.94;;;10.69;63.93
23118;BME280;11728;50.624;6.014;2023-04-06T12:49:23;98249.88;;;10.71;65.44
23118;BME280;11728;50.624;6.014;2023-04-06T12:54:23;98241.00;;;11.42;64.61
23118;BME280;11728;50.624;6.014;2023-04-06T12:59:26;98250.34;;;11.86;62.69
23118;BME280;11728;50.624;6.014;2023-04-06T13:04:28;98243.59;;;11.43;63.76
23118;BME280;11728;50.624;6.014;2023-04-06T13:09:28;98252.06;;;10.89;66.18
23118;BME280;11728;50.624;6.014;2023-04-06T13:14:28;98247.25;;;10.33;68.33
23118;BME280;11728;50.624;6.014;2023-04-06T13:19:29;98243.25;;;10.54;68.54
23118;BME280;11728;50.624;6.014;2023-04-06T13:24:31;98239.41;;;10.68;68.57
23118;BME280;11728;50.624;6.014;2023-04-06T13:29:31;98240.31;;;10.66;68.51
23118;BME280;11728;50.624;6.014;2023-04-06T13:34:32;98227.72;;;10.76;68.72
23118;BME280;11728;50.624;6.014;2023-04-06T13:39:32;98221.66;;;10.73;69.08
23118;BME280;11728;50.624;6.014;2023-04-06T13:44:33;98226.09;;;10.73;69.36
23118;BME280;11728;50.624;6.014;2023-04-06T13:49:33;98212.69;;;10.44;70.84
23118;BME280;11728;50.624;6.014;2023-04-06T13:54:33;98206.66;;;10.39;71.97
23118;BME280;11728;50.624;6.014;2023-04-06T13:59:35;98212.38;;;10.21;73.08
23118;BME280;11728;50.624;6.014;2023-04-06T14:04:36;98209.19;;;10.05;74.82
23118;BME280;11728;50.624;6.014;2023-04-06T14:09:36;98203.59;;;9.78;77.00
23118;BME280;11728;50.624;6.014;2023-04-06T14:14:36;98205.53;;;9.70;78.26
23118;BME280;11728;50.624;6.014;2023-04-06T14:19:37;98207.25;;;9.71;79.20
23118;BME280;11728;50.624;6.014;2023-04-06T14:24:37;98200.38;;;9.64;79.98
23118;BME280;11728;50.624;6.014;2023-04-06T14:29:38;98188.94;;;9.65;80.16
23118;BME280;11728;50.624;6.014;2023-04-06T14:34:38;98186.16;;;9.71;79.95
23118;BME280;11728;50.624;6.014;2023-04-06T14:39:38;98177.22;;;9.80;80.27
23118;BME280;11728;50.624;6.014;2023-04-06T14:44:39;98180.44;;;9.92;80.05
23118;BME280;11728;50.624;6.014;2023-04-06T14:49:42;98171.56;;;9.96;79.62
23118;BME280;11728;50.624;6.014;2023-04-06T14:54:43;98173.25;;;10.01;79.18
23118;BME280;11728;50.624;6.014;2023-04-06T14:59:46;98174.63;;;9.77;79.76
23118;BME280;11728;50.624;6.014;2023-04-06T15:04:47;98171.56;;;9.57;80.42
23118;BME280;11728;50.624;6.014;2023-04-06T15:09:47;98172.91;;;9.33;81.80
23118;BME280;11728;50.624;6.014;2023-04-06T15:14:47;98176.69;;;9.20;82.98
23118;BME280;11728;50.624;6.014;2023-04-06T15:19:48;98175.56;;;9.32;82.95
23118;BME280;11728;50.624;6.014;2023-04-06T15:24:48;98171.88;;;9.40;82.78
23118;BME280;11728;50.624;6.014;2023-04-06T15:29:48;98163.97;;;9.40;82.88
23118;BME280;11728;50.624;6.014;2023-04-06T15:34:49;98156.78;;;9.50;82.79
23118;BME280;11728;50.624;6.014;2023-04-06T15:39:49;98161.19;;;9.48;83.29
23118;BME280;11728;50.624;6.014;2023-04-06T15:44:50;98169.16;;;9.46;84.03
23118;BME280;11728;50.624;6.014;2023-04-06T15:49:50;98155.16;;;9.41;84.39
23118;BME280;11728;50.624;6.014;2023-04-06T15:54:51;98162.88;;;9.08;86.49
23118;BME280;11728;50.624;6.014;2023-04-06T15:59:51;98158.75;;;8.95;88.32
23118;BME280;11728;50.624;6.014;2023-04-06T16:04:55;98156.91;;;8.99;88.80
23118;BME280;11728;50.624;6.014;2023-04-06T16:09:56;98157.28;;;8.79;90.57
23118;BME280;11728;50.624;6.014;2023-04-06T16:14:57;98161.63;;;8.82;91.06
23118;BME280;11728;50.624;6.014;2023-04-06T16:19:57;98147.84;;;8.68;91.53
23118;BME280;11728;50.624;6.014;2023-04-06T16:24:58;98150.72;;;8.54;92.94
23118;BME280;11728;50.624;6.014;2023-04-06T16:29:58;98143.94;;;8.40;94.32
23118;BME280;11728;50.624;6.014;2023-04-06T16:34:59;98151.94;;;8.34;94.85
23118;BME280;11728;50.624;6.014;2023-04-06T16:40:00;98134.56;;;8.24;95.23
23118;BME280;11728;50.624;6.014;2023-04-06T16:45:01;98136.53;;;8.09;97.54
23118;BME280;11728;50.624;6.014;2023-04-06T16:50:01;98140.22;;;7.97;99.67
23118;BME280;11728;50.624;6.014;2023-04-06T16:55:02;98138.44;;;7.99;99.86
23118;BME280;11728;50.624;6.014;2023-04-06T17:00:04;98135.69;;;8.07;99.42
23118;BME280;11728;50.624;6.014;2023-04-06T17:05:05;98140.03;;;8.09;99.58
23118;BME280;11728;50.624;6.014;2023-04-06T17:10:06;98131.25;;;8.10;100.00
23118;BME280;11728;50.624;6.014;2023-04-06T17:15:07;98133.09;;;8.05;100.00
23118;BME280;11728;50.624;6.014;2023-04-06T17:20:08;98126.06;;;8.07;100.00
23118;BME280;11728;50.624;6.014;2023-04-06T17:25:08;98132.16;;;8.08;100.00
23118;BME280;11728;50.624;6.014;2023-04-06T17:30:10;98130.41;;;8.08;100.00
23118;BME280;11728;50.624;6.014;2023-04-06T17:35:14;98137.31;;;8.14;100.00
23118;BME280;11728;50.624;6.014;2023-04-06T17:40:14;98146.06;;;8.17;100.00
23118;BME280;11728;50.624;6.014;2023-04-06T17:45:15;98153.03;;;8.21;100.00
23118;BME280;11728;50.624;6.014;2023-04-06T17:50:16;98145.16;;;8.21;100.00
23118;BME280;11728;50.624;6.014;2023-04-06T17:55:17;98135.53;;;8.20;100.00
23118;BME280;11728;50.624;6.014;2023-04-06T18:00:20;98133.72;;;8.22;100.00
23118;BME280;11728;50.624;6.014;2023-04-06T18:05:24;98138.97;;;8.24;100.00
23118;BME280;11728;50.624;6.014;2023-04-06T18:10:25;98144.22;;;8.22;100.00
23118;BME280;11728;50.624;6.014;2023-04-06T18:15:25;98152.94;;;8.27;100.00
23118;BME280;11728;50.624;6.014;2023-04-06T18:20:26;98150.06;;;8.42;99.60
23118;BME280;11728;50.624;6.014;2023-04-06T18:25:26;98140.28;;;8.48;99.31
23118;BME280;11728;50.624;6.014;2023-04-06T18:30:26;98144.53;;;8.57;98.67
23118;BME280;11728;50.624;6.014;2023-04-06T18:35:27;98145.31;;;8.62;98.03
23118;BME280;11728;50.624;6.014;2023-04-06T18:40:35;98143.44;;;8.68;97.89
23118;BME280;11728;50.624;6.014;2023-04-06T18:45:36;98134.75;;;8.63;97.92
23118;BME280;11728;50.624;6.014;2023-04-06T18:50:40;98141.78;;;8.63;97.66
23118;BME280;11728;50.624;6.014;2023-04-06T18:55:50;98140.81;;;8.67;97.68
23118;BME280;11728;50.624;6.014;2023-04-06T19:00:54;98149.56;;;8.69;97.19
23118;BME280;11728;50.624;6.014;2023-04-06T19:05:56;98137.25;;;8.71;97.39
23118;BME280;11728;50.624;6.014;2023-04-06T19:10:56;98142.53;;;8.71;97.44
23118;BME280;11728;50.624;6.014;2023-04-06T19:15:57;98140.75;;;8.73;97.20
23118;BME280;11728;50.624;6.014;2023-04-06T19:20:57;98139.94;;;8.69;97.59
23118;BME280;11728;50.624;6.014;2023-04-06T19:25:57;98139.94;;;8.69;97.21
23118;BME280;11728;50.624;6.014;2023-04-06T19:31:00;98138.88;;;8.78;97.31
23118;BME280;11728;50.624;6.014;2023-04-06T19:36:01;98138.75;;;8.84;97.04
23118;BME280;11728;50.624;6.014;2023-04-06T19:41:06;98141.31;;;8.88;97.07
23118;BME280;11728;50.624;6.014;2023-04-06T19:46:07;98144.75;;;8.92;97.08
23118;BME280;11728;50.624;6.014;2023-04-06T19:51:08;98142.09;;;8.95;97.08
23118;BME280;11728;50.624;6.014;2023-04-06T19:56:08;98151.72;;;8.94;96.86
23118;BME280;11728;50.624;6.014;2023-04-06T20:01:09;98142.13;;;8.92;96.85
23118;BME280;11728;50.624;6.014;2023-04-06T20:06:10;98143.91;;;8.90;97.17
23118;BME280;11728;50.624;6.014;2023-04-06T20:11:13;98143.03;;;8.91;97.47
23118;BME280;11728;50.624;6.014;2023-04-06T20:16:13;98133.28;;;8.96;97.39
23118;BME280;11728;50.624;6.014;2023-04-06T20:21:14;98138.44;;;9.02;97.15
23118;BME280;11728;50.624;6.014;2023-04-06T20:26:15;98135.72;;;9.06;97.18
23118;BME280;11728;50.624;6.014;2023-04-06T20:31:18;98138.22;;;9.11;97.35
23118;BME280;11728;50.624;6.014;2023-04-06T20:36:19;98132.91;;;9.14;97.39
23118;BME280;11728;50.624;6.014;2023-04-06T20:41:20;98139.81;;;9.20;97.05
23118;BME280;11728;50.624;6.014;2023-04-06T20:46:21;98128.28;;;9.26;97.22
23118;BME280;11728;50.624;6.014;2023-04-06T20:51:21;98129.09;;;9.29;97.52
23118;BME280;11728;50.624;6.014;2023-04-06T20:56:25;98125.56;;;9.30;97.35
23118;BME280;11728;50.624;6.014;2023-04-06T21:01:25;98130.75;;;9.33;98.30
23118;BME280;11728;50.624;6.014;2023-04-06T21:06:28;98128.09;;;9.33;98.96
23118;BME280;11728;50.624;6.014;2023-04-06T21:11:29;98124.56;;;9.34;99.21
23118;BME280;11728;50.624;6.014;2023-04-06T21:16:29;98123.75;;;9.32;100.00
23118;BME280;11728;50.624;6.014;2023-04-06T21:21:29;98115.03;;;9.29;100.00
23118;BME280;11728;50.624;6.014;2023-04-06T21:26:30;98116.91;;;9.24;100.00
23118;BME280;11728;50.624;6.014;2023-04-06T21:31:30;98105.63;;;9.18;100.00
23118;BME280;11728;50.624;6.014;2023-04-06T21:36:30;98108.13;;;9.23;100.00
23118;BME280;11728;50.624;6.014;2023-04-06T21:41:33;98110.72;;;9.25;100.00
23118;BME280;11728;50.624;6.014;2023-04-06T21:46:33;98109.00;;;9.24;100.00
23118;BME280;11728;50.624;6.014;2023-04-06T21:51:34;98113.47;;;9.20;100.00
23118;BME280;11728;50.624;6.014;2023-04-06T21:56:34;98114.34;;;9.19;100.00
23118;BME280;11728;50.624;6.014;2023-04-06T22:01:35;98118.81;;;9.18;100.00
23118;BME280;11728;50.624;6.014;2023-04-06T22:06:35;98113.59;;;9.15;100.00
23118;BME280;11728;50.624;6.014;2023-04-06T22:11:37;98120.66;;;9.13;100.00
23118;BME280;11728;50.624;6.014;2023-04-06T22:16:38;98119.69;;;9.17;100.00
23118;BME280;11728;50.624;6.014;2023-04-06T22:21:38;98121.44;;;9.16;100.00
23118;BME280;11728;50.624;6.014;2023-04-06T22:26:39;98120.59;;;9.16;100.00
23118;BME280;11728;50.624;6.014;2023-04-06T22:31:39;98124.06;;;9.18;100.00
23118;BME280;11728;50.624;6.014;2023-04-06T22:36:40;98116.13;;;9.19;100.00
23118;BME280;11728;50.624;6.014;2023-04-06T22:41:40;98118.72;;;9.20;100.00
23118;BME280;11728;50.624;6.014;2023-04-06T22:46:40;98118.69;;;9.23;100.00
23118;BME280;11728;50.624;6.014;2023-04-06T22:51:41;98125.56;;;9.30;100.00
23118;BME280;11728;50.624;6.014;2023-04-06T22:56:41;98121.13;;;9.32;100.00
23118;BME280;11728;50.624;6.014;2023-04-06T23:01:42;98123.63;;;9.38;100.00
23118;BME280;11728;50.624;6.014;2023-04-06T23:06:42;98120.94;;;9.40;100.00
23118;BME280;11728;50.624;6.014;2023-04-06T23:11:43;98126.19;;;9.43;100.00
23118;BME280;11728;50.624;6.014;2023-04-06T23:16:43;98128.81;;;9.41;100.00
23118;BME280;11728;50.624;6.014;2023-04-06T23:21:44;98135.91;;;9.39;100.00
23118;BME280;11728;50.624;6.014;2023-04-06T23:26:44;98129.81;;;9.37;100.00
23118;BME280;11728;50.624;6.014;2023-04-06T23:31:45;98132.56;;;9.31;100.00
23118;BME280;11728;50.624;6.014;2023-04-06T23:36:45;98132.47;;;9.34;100.00
23118;BME280;11728;50.624;6.014;2023-04-06T23:41:46;98135.13;;;9.34;100.00
23118;BME280;11728;50.624;6.014;2023-04-06T23:46:46;98137.69;;;9.37;100.00
23118;BME280;11728;50.624;6.014;2023-04-06T23:51:46;98139.41;;;9.40;100.00
23118;BME280;11728;50.624;6.014;2023-04-06T23:56:47;98141.19;;;9.39;100.00
